createdAt,value
2022-09-28T12:23:34.352Z,26.08
2022-09-28T12:26:05.743Z,25.31
2022-09-28T12:28:39.395Z,25.35
2022-09-28T12:31:16.093Z,25.29
2022-09-28T12:33:49.043Z,25.15
2022-09-28T12:36:32.552Z,24.97
2022-09-28T12:39:35.706Z,25.10
2022-09-28T12:42:29.165Z,24.69
2022-09-28T12:45:17.443Z,24.78
2022-09-28T12:48:11.537Z,24.89
2022-09-28T12:50:54.547Z,24.87
2022-09-28T12:53:40.455Z,24.66
2022-09-28T12:56:21.539Z,24.68
2022-09-28T12:59:01.887Z,24.67
2022-09-28T13:01:47.951Z,24.65
2022-09-28T13:04:44.046Z,24.69
2022-09-28T13:07:22.241Z,24.48
2022-09-28T13:10:02.420Z,24.42
2022-09-28T13:12:46.232Z,24.37
2022-09-28T13:15:27.764Z,24.51
2022-09-28T13:18:04.171Z,24.37
2022-09-28T13:20:41.183Z,24.42
2022-09-28T13:23:22.700Z,24.42
2022-09-28T13:25:56.536Z,24.42
2022-09-28T13:28:28.321Z,24.29
2022-09-28T13:33:36.768Z,24.31
2022-09-28T13:36:10.728Z,24.60
2022-09-28T13:38:50.892Z,24.73
2022-09-28T13:41:29.065Z,24.81
2022-09-28T13:44:29.213Z,24.79
2022-09-28T13:47:16.869Z,24.85
2022-09-28T13:49:58.661Z,24.97
2022-09-28T13:52:40.844Z,24.96
2022-09-28T13:55:33.015Z,24.62
2022-09-28T13:58:05.344Z,24.43
2022-09-28T14:00:39.758Z,24.38
2022-09-28T14:03:25.270Z,24.34
2022-09-28T14:06:05.820Z,24.31
2022-09-28T14:08:40.239Z,23.99
2022-09-28T14:11:49.818Z,24.13
2022-09-28T14:14:49.224Z,24.09
2022-09-28T14:17:59.064Z,23.90
2022-09-28T14:20:31.458Z,23.46
2022-09-28T14:23:39.657Z,24.02
2022-09-28T14:26:39.575Z,23.87
2022-09-28T14:29:28.438Z,24.02
2022-09-28T14:31:58.293Z,23.94
2022-09-28T14:34:37.593Z,23.93
2022-09-28T14:37:36.695Z,23.97
2022-09-28T14:40:34.612Z,23.58
2022-09-28T14:43:29.377Z,23.91
2022-09-28T14:46:36.131Z,24.02
2022-09-28T14:49:06.638Z,23.92
2022-09-28T14:52:13.562Z,23.96
2022-09-28T14:54:54.571Z,23.87
2022-09-28T14:57:26.481Z,23.99
2022-09-28T14:59:56.982Z,24.12
2022-09-28T15:02:28.960Z,23.80
2022-09-28T15:05:01.015Z,23.97
2022-09-28T15:07:43.422Z,23.67
2022-09-28T15:10:27.313Z,24.02
2022-09-28T15:12:57.649Z,24.10
2022-09-28T15:15:30.832Z,23.98
2022-09-28T15:18:09.405Z,23.83
2022-09-28T15:20:41.631Z,23.75
2022-09-28T15:23:25.600Z,23.76
2022-09-28T15:25:55.091Z,23.71
2022-09-28T15:28:25.180Z,23.64
2022-09-28T15:31:00.625Z,23.26
2022-09-28T15:33:48.280Z,23.08
2022-09-28T15:36:20.693Z,23.39
2022-09-28T15:38:56.513Z,23.28
2022-09-28T15:41:25.559Z,23.23
2022-09-28T15:44:08.469Z,23.08
2022-09-28T15:46:38.716Z,22.85
2022-09-28T15:49:08.373Z,22.95
2022-09-28T15:51:52.163Z,22.77
2022-09-28T15:54:24.937Z,22.69
2022-09-28T15:56:55.067Z,22.40
2022-09-28T15:59:30.765Z,22.34
2022-09-28T16:02:12.784Z,22.43
2022-09-28T16:04:50.472Z,22.39
2022-09-28T16:07:24.752Z,22.30
2022-09-28T16:10:02.784Z,22.33
2022-09-28T16:12:42.088Z,22.42
2022-09-28T16:15:20.186Z,22.41
2022-09-28T16:17:53.367Z,22.33
2022-09-28T16:20:31.978Z,22.03
2022-09-28T16:23:05.949Z,22.30
2022-09-28T16:25:39.457Z,22.20
2022-09-28T16:28:09.069Z,22.13
2022-09-28T16:30:36.936Z,22.02
2022-09-28T16:33:06.753Z,21.79
2022-09-28T16:35:51.331Z,21.57
2022-09-28T16:38:20.462Z,21.68
2022-09-28T16:40:52.676Z,21.58
2022-09-28T16:43:26.860Z,21.16
2022-09-28T16:45:57.610Z,20.92
2022-09-28T16:48:27.932Z,21.09
2022-09-28T16:50:57.608Z,21.09
2022-09-28T16:53:43.502Z,20.76
2022-09-28T16:56:13.801Z,21.06
2022-09-28T16:58:42.538Z,20.97
2022-09-28T17:01:12.927Z,20.92
2022-09-28T17:03:42.664Z,20.93
2022-09-28T17:06:12.968Z,20.85
2022-09-28T17:08:43.068Z,20.78
2022-09-28T17:11:20.149Z,20.60
2022-09-28T17:13:51.843Z,20.87
2022-09-28T17:16:37.285Z,20.64
2022-09-28T17:19:19.746Z,21.02
2022-09-28T17:21:48.189Z,20.65
2022-09-28T17:24:16.122Z,20.68
2022-09-28T17:26:46.940Z,20.81
2022-09-28T17:29:16.440Z,20.52
2022-09-28T17:31:45.621Z,20.45
2022-09-28T17:34:15.228Z,20.43
2022-09-28T17:36:43.867Z,20.39
2022-09-28T17:39:13.927Z,20.34
2022-09-28T17:41:44.731Z,19.97
2022-09-28T17:44:16.201Z,20.34
2022-09-28T17:46:48.660Z,20.08
2022-09-28T17:49:16.936Z,20.34
2022-09-28T17:51:44.834Z,20.19
2022-09-28T17:54:13.730Z,20.17
2022-09-28T17:56:42.425Z,20.01
2022-09-28T17:59:17.384Z,20.08
2022-09-28T18:01:45.520Z,19.92
2022-09-28T18:04:33.264Z,20.00
2022-09-28T18:07:01.477Z,19.84
2022-09-28T18:09:29.471Z,19.85
2022-09-28T18:12:01.078Z,19.69
2022-09-28T18:14:30.440Z,19.64
2022-09-28T18:16:58.439Z,19.21
2022-09-28T18:19:31.700Z,19.36
2022-09-28T18:22:01.449Z,18.96
2022-09-28T18:24:29.500Z,19.06
2022-09-28T18:26:57.334Z,18.89
2022-09-28T18:29:25.216Z,18.86
2022-09-28T18:31:54.445Z,17.63
2022-09-28T18:34:22.301Z,18.66
2022-09-28T18:36:50.148Z,18.59
2022-09-28T18:39:18.060Z,18.53
2022-09-28T18:41:45.924Z,18.48
2022-09-28T18:44:13.777Z,18.45
2022-09-28T18:46:43.606Z,18.30
2022-09-28T18:49:15.968Z,18.31
2022-09-28T18:51:43.824Z,18.20
2022-09-28T18:54:11.665Z,18.25
2022-09-28T18:56:39.506Z,18.11
2022-09-28T18:59:12.276Z,18.19
2022-09-28T19:01:41.514Z,17.85
2022-09-28T19:04:10.960Z,18.16
2022-09-28T19:06:41.552Z,18.20
2022-09-28T19:09:10.433Z,18.14
2022-09-28T19:11:38.307Z,18.21
2022-09-28T19:14:06.156Z,18.21
2022-09-28T19:16:34.726Z,18.21
2022-09-28T19:19:03.304Z,18.28
2022-09-28T19:21:31.820Z,18.06
2022-09-28T19:24:04.006Z,17.82
2022-09-28T19:26:32.910Z,17.82
2022-09-28T19:29:02.165Z,17.90
2022-09-28T19:31:30.169Z,18.03
2022-09-28T19:33:58.218Z,17.92
2022-09-28T19:36:28.555Z,17.97
2022-09-28T19:38:57.817Z,17.93
2022-09-28T19:41:51.020Z,17.74
2022-09-28T19:44:24.576Z,17.91
2022-09-28T19:46:54.739Z,17.91
2022-09-28T19:49:24.038Z,18.19
2022-09-28T19:52:12.769Z,18.25
2022-09-28T19:54:41.201Z,18.44
2022-09-28T19:57:11.575Z,18.20
2022-09-28T19:59:39.760Z,18.25
2022-09-28T20:02:08.863Z,17.95
2022-09-28T20:04:36.789Z,18.23
2022-09-28T20:07:05.465Z,18.26
2022-09-28T20:09:33.779Z,18.14
2022-09-28T20:12:01.945Z,18.23
2022-09-28T20:14:34.206Z,17.97
2022-09-28T20:17:06.155Z,18.22
2022-09-28T20:19:34.988Z,17.95
2022-09-28T20:22:03.437Z,18.00
2022-09-28T20:24:32.011Z,18.08
2022-09-28T20:27:01.352Z,18.03
2022-09-28T20:29:33.330Z,17.80
2022-09-28T20:32:01.829Z,17.64
2022-09-28T20:34:29.706Z,17.51
2022-09-28T20:36:57.578Z,17.60
2022-09-28T20:39:25.422Z,17.40
2022-09-28T20:41:53.593Z,17.48
2022-09-28T20:44:21.608Z,17.40
2022-09-28T20:46:52.845Z,17.37
2022-09-28T20:49:20.681Z,17.41
2022-09-28T20:51:48.681Z,17.40
2022-09-28T20:54:16.681Z,17.40
2022-09-28T20:56:44.814Z,17.42
2022-09-28T20:59:13.729Z,17.42
2022-09-28T21:01:41.911Z,17.38
2022-09-28T21:04:11.830Z,17.21
2022-09-28T21:06:42.078Z,17.17
2022-09-28T21:09:12.209Z,16.78
2022-09-28T21:11:40.314Z,17.03
2022-09-28T21:14:10.367Z,16.87
2022-09-28T21:16:38.506Z,16.74
2022-09-28T21:19:06.366Z,16.88
2022-09-28T21:21:35.831Z,16.91
2022-09-28T21:24:03.879Z,16.55
2022-09-28T21:26:32.290Z,16.80
2022-09-28T21:29:02.112Z,16.65
2022-09-28T21:31:32.782Z,16.86
2022-09-28T21:34:00.975Z,16.52
2022-09-28T21:36:28.851Z,16.74
2022-09-28T21:38:58.501Z,16.73
2022-09-28T21:41:26.835Z,16.66
2022-09-28T21:43:54.791Z,16.73
2022-09-28T21:46:22.792Z,16.63
2022-09-28T21:48:53.674Z,15.99
2022-09-28T21:51:22.147Z,16.33
2022-09-28T21:53:50.315Z,16.37
2022-09-28T21:56:19.531Z,16.36
2022-09-28T21:58:48.169Z,16.20
2022-09-28T22:01:19.530Z,16.14
2022-09-28T22:03:49.198Z,16.10
2022-09-28T22:06:18.415Z,15.92
2022-09-28T22:08:47.061Z,16.17
2022-09-28T22:11:17.258Z,16.08
2022-09-28T22:13:48.438Z,15.76
2022-09-28T22:16:18.539Z,16.08
2022-09-28T22:18:46.983Z,15.89
2022-09-28T22:21:16.772Z,16.05
2022-09-28T22:23:44.801Z,16.06
2022-09-28T22:26:15.241Z,15.96
2022-09-28T22:28:48.172Z,16.12
2022-09-28T22:31:16.898Z,16.13
2022-09-28T22:33:45.096Z,16.18
2022-09-28T22:36:16.675Z,16.32
2022-09-28T22:38:44.932Z,16.28
2022-09-28T22:41:13.640Z,16.32
2022-09-28T22:43:41.465Z,16.15
2022-09-28T22:46:12.631Z,16.44
2022-09-28T22:48:42.311Z,16.44
2022-09-28T22:51:10.197Z,16.12
2022-09-28T22:53:38.311Z,16.41
2022-09-28T22:56:07.003Z,16.28
2022-09-28T22:58:36.078Z,16.42
2022-09-28T23:01:08.486Z,16.50
2022-09-28T23:03:40.066Z,16.43
2022-09-28T23:06:09.174Z,16.36
2022-09-28T23:08:37.351Z,16.40
2022-09-28T23:11:05.798Z,16.20
2022-09-28T23:13:33.802Z,16.40
2022-09-28T23:16:03.760Z,16.35
2022-09-28T23:18:34.515Z,16.13
2022-09-28T23:21:05.944Z,16.60
2022-09-28T23:23:34.424Z,16.50
2022-09-28T23:26:10.396Z,16.35
2022-09-28T23:28:38.276Z,16.57
2022-09-28T23:31:09.712Z,16.57
2022-09-28T23:33:37.583Z,16.63
2022-09-28T23:36:07.937Z,16.66
2022-09-28T23:38:35.891Z,16.66
2022-09-28T23:41:03.781Z,16.67
2022-09-28T23:43:31.634Z,16.62
2022-09-28T23:45:59.536Z,16.60
2022-09-28T23:48:27.433Z,16.57
2022-09-28T23:50:55.358Z,16.53
2022-09-28T23:53:24.599Z,16.48
2022-09-28T23:55:52.495Z,16.47
2022-09-28T23:58:20.423Z,16.52
